Time;durP1;ratioP1;P1;durP2;ratioP2;P2;SDS_P1;SDS_P2;PMS_P1;PMS_P2;Temp;Humidity;BMP_temperature;BMP_pressure;BME280_temperature;BME280_humidity;BME280_pressure;Samples;Min_cycle;Max_cycle;Signal;HPM_P1;HPM_P2
2021/05/09 00:02:14;;;;;;;2.85;1.30;;;13.20;80.50;;;;;;5030975;28;20037;-75
2021/05/09 00:04:40;;;;;;;1.83;1.40;;;13.20;80.60;;;;;;5029557;28;20034;-73
2021/05/09 00:07:06;;;;;;;2.78;1.27;;;13.20;80.80;;;;;;5029295;28;20038;-75
2021/05/09 00:09:32;;;;;;;2.97;1.20;;;13.20;80.60;;;;;;5029325;28;20332;-74
2021/05/09 00:11:59;;;;;;;3.88;1.45;;;13.20;80.40;;;;;;5029257;28;20036;-75
2021/05/09 00:14:24;;;;;;;3.45;1.25;;;13.20;80.30;;;;;;5029223;28;20513;-75
2021/05/09 00:16:50;;;;;;;4.60;1.27;;;13.20;80.20;;;;;;5030478;28;20583;-74
2021/05/09 00:19:16;;;;;;;2.67;1.30;;;13.30;79.90;;;;;;5028320;28;20076;-74
2021/05/09 00:21:41;;;;;;;4.20;1.20;;;13.30;79.70;;;;;;5029244;28;20037;-74
2021/05/09 00:24:07;;;;;;;3.53;1.20;;;13.30;79.60;;;;;;5028016;28;20061;-75
2021/05/09 00:26:34;;;;;;;2.20;1.15;;;13.30;80.00;;;;;;5029090;28;20029;-74
2021/05/09 00:29:00;;;;;;;3.33;1.30;;;13.30;79.50;;;;;;5030180;28;20059;-74
2021/05/09 00:31:25;;;;;;;2.97;1.40;;;13.30;79.90;;;;;;5029040;28;20033;-73
2021/05/09 00:33:51;;;;;;;1.77;1.05;;;13.30;79.50;;;;;;5028849;28;20111;-74
2021/05/09 00:36:17;;;;;;;1.92;1.05;;;13.30;79.30;;;;;;5029047;28;20105;-74
2021/05/09 00:38:42;;;;;;;3.28;1.30;;;13.30;79.00;;;;;;5028911;28;20044;-74
2021/05/09 00:41:08;;;;;;;3.08;1.20;;;13.30;79.20;;;;;;5030421;28;20034;-74
2021/05/09 00:43:34;;;;;;;1.55;1.02;;;13.30;79.00;;;;;;5028798;28;20094;-73
2021/05/09 00:45:59;;;;;;;2.95;1.20;;;13.40;79.10;;;;;;5028854;28;20125;-73
2021/05/09 00:48:25;;;;;;;3.58;1.20;;;13.30;79.00;;;;;;5028806;28;20061;-73
2021/05/09 00:50:53;;;;;;;2.40;1.40;;;13.40;79.10;;;;;;5028163;28;20034;-73
2021/05/09 00:53:23;;;;;;;1.58;1.10;;;13.40;78.90;;;;;;5028811;28;20587;-73
2021/05/09 00:55:48;;;;;;;3.95;1.40;;;13.40;78.80;;;;;;5030393;28;20017;-73
2021/05/09 00:58:16;;;;;;;2.90;1.00;;;13.40;78.80;;;;;;5028826;28;20421;-74
2021/05/09 01:00:42;;;;;;;2.03;1.15;;;13.50;78.60;;;;;;5031582;28;20049;-73
2021/05/09 01:03:09;;;;;;;1.58;1.08;;;13.50;78.50;;;;;;5032664;28;20332;-74
2021/05/09 01:05:36;;;;;;;1.30;1.02;;;13.50;78.30;;;;;;5032786;28;20025;-73
2021/05/09 01:08:03;;;;;;;2.03;1.13;;;13.50;77.90;;;;;;5034058;28;20052;-73
2021/05/09 01:10:29;;;;;;;1.52;1.23;;;13.60;77.80;;;;;;5032539;28;20048;-73
2021/05/09 01:12:55;;;;;;;2.40;1.10;;;13.60;77.80;;;;;;5031419;28;20034;-73
2021/05/09 01:15:22;;;;;;;2.58;1.20;;;13.70;77.60;;;;;;5032208;28;20160;-73
2021/05/09 01:17:47;;;;;;;2.95;1.25;;;13.70;77.50;;;;;;5031264;28;20025;-73
2021/05/09 01:20:13;;;;;;;2.47;1.30;;;13.70;77.40;;;;;;5032586;28;20033;-74
2021/05/09 01:22:39;;;;;;;3.20;1.20;;;13.70;77.50;;;;;;5032638;28;20079;-73
2021/05/09 01:25:06;;;;;;;1.63;1.02;;;13.70;77.40;;;;;;5031151;28;20371;-73
2021/05/09 01:27:32;;;;;;;4.03;1.48;;;13.70;77.20;;;;;;5032239;28;20072;-72
2021/05/09 01:29:57;;;;;;;1.23;0.90;;;13.70;78.00;;;;;;5032445;28;20083;-73
2021/05/09 01:32:23;;;;;;;4.03;1.20;;;13.70;77.30;;;;;;5031168;28;20018;-72
2021/05/09 01:34:49;;;;;;;1.85;0.90;;;13.70;77.30;;;;;;5033637;28;20092;-72
2021/05/09 01:37:15;;;;;;;3.55;1.50;;;13.70;77.30;;;;;;5031027;28;20026;-72
2021/05/09 01:39:40;;;;;;;2.20;1.23;;;13.70;77.20;;;;;;5032037;28;20041;-73
2021/05/09 01:42:06;;;;;;;1.55;1.33;;;13.80;77.50;;;;;;5032011;28;20579;-72
2021/05/09 01:44:31;;;;;;;1.92;1.15;;;13.80;77.70;;;;;;5031882;28;20029;-72
2021/05/09 01:46:57;;;;;;;6.25;1.40;;;13.70;77.60;;;;;;5033575;28;20041;-72
2021/05/09 01:49:23;;;;;;;2.55;1.17;;;13.70;77.50;;;;;;5031950;28;20076;-74
2021/05/09 01:51:49;;;;;;;1.85;1.13;;;13.70;77.80;;;;;;5031811;28;20467;-73
2021/05/09 01:54:15;;;;;;;4.60;1.13;;;13.70;77.70;;;;;;5031547;28;20121;-73
2021/05/09 01:56:40;;;;;;;4.60;0.88;;;13.80;77.80;;;;;;5031406;28;20132;-72
2021/05/09 01:59:10;;;;;;;1.50;1.20;;;13.80;77.50;;;;;;5032941;28;20375;-72
2021/05/09 02:01:36;;;;;;;5.38;1.40;;;13.80;77.50;;;;;;5012685;28;20472;-72
2021/05/09 02:04:03;;;;;;;4.97;1.20;;;13.80;77.40;;;;;;5025830;28;20038;-73
2021/05/09 02:06:28;;;;;;;2.15;1.02;;;13.80;77.50;;;;;;5031744;28;20744;-73
2021/05/09 02:08:54;;;;;;;4.90;1.17;;;13.80;77.20;;;;;;5031412;28;20150;-73
2021/05/09 02:11:20;;;;;;;3.33;1.15;;;13.90;77.20;;;;;;5031085;28;20332;-72
2021/05/09 02:13:46;;;;;;;5.93;0.98;;;13.90;77.40;;;;;;5032876;28;20032;-74
2021/05/09 02:16:12;;;;;;;2.05;1.17;;;13.90;77.60;;;;;;5028628;28;20045;-74
2021/05/09 02:18:38;;;;;;;1.85;1.00;;;13.90;77.40;;;;;;5031139;28;20033;-74
2021/05/09 02:21:03;;;;;;;2.35;1.30;;;13.90;77.40;;;;;;5031414;28;20094;-74
2021/05/09 02:23:30;;;;;;;3.88;1.40;;;13.90;77.20;;;;;;5031256;28;20040;-75
2021/05/09 02:25:55;;;;;;;1.60;1.00;;;13.90;77.70;;;;;;5032781;28;20379;-74
2021/05/09 02:28:21;;;;;;;4.53;1.20;;;13.90;78.00;;;;;;5029758;28;20475;-74
2021/05/09 02:30:46;;;;;;;1.85;0.90;;;13.80;77.80;;;;;;5029709;28;20041;-75
2021/05/09 02:33:12;;;;;;;1.45;1.15;;;13.90;78.10;;;;;;5031026;28;20048;-74
2021/05/09 02:35:38;;;;;;;5.15;1.38;;;13.90;78.30;;;;;;5030857;28;20072;-74
2021/05/09 02:38:04;;;;;;;2.17;1.30;;;13.80;78.60;;;;;;5032510;28;20443;-74
2021/05/09 02:40:30;;;;;;;2.33;0.90;;;13.90;78.50;;;;;;5030724;28;20131;-73
2021/05/09 02:42:56;;;;;;;1.63;0.90;;;13.80;78.40;;;;;;5030451;28;20057;-75
2021/05/09 02:45:23;;;;;;;4.82;0.93;;;13.80;78.20;;;;;;5030373;28;20029;-73
2021/05/09 02:47:48;;;;;;;2.38;1.20;;;13.80;78.60;;;;;;5030768;28;20083;-75
2021/05/09 02:50:14;;;;;;;3.53;1.30;;;13.80;78.60;;;;;;5032089;28;20037;-75
2021/05/09 02:52:40;;;;;;;3.30;1.35;;;13.80;79.50;;;;;;5029788;28;20044;-73
2021/05/09 02:55:06;;;;;;;1.73;1.20;;;13.70;79.00;;;;;;5030921;28;20040;-74
2021/05/09 02:57:32;;;;;;;2.22;1.10;;;13.70;80.70;;;;;;5030721;28;20091;-73
2021/05/09 02:59:58;;;;;;;1.77;0.95;;;13.70;80.30;;;;;;5030533;28;20064;-73
2021/05/09 03:02:23;;;;;;;5.75;1.48;;;13.60;82.50;;;;;;5030536;28;20029;-73
2021/05/09 03:04:49;;;;;;;2.20;1.23;;;13.50;82.40;;;;;;5031854;28;20026;-74
2021/05/09 03:07:15;;;;;;;2.53;1.30;;;13.40;81.50;;;;;;5030418;28;20112;-73
2021/05/09 03:09:40;;;;;;;2.38;1.13;;;13.40;80.70;;;;;;5030215;28;20029;-73
2021/05/09 03:12:07;;;;;;;1.85;1.05;;;13.40;81.10;;;;;;5029276;28;20034;-74
2021/05/09 03:14:32;;;;;;;1.13;1.00;;;13.30;80.70;;;;;;5030354;28;20029;-73
2021/05/09 03:16:58;;;;;;;4.03;1.50;;;13.30;81.60;;;;;;5030541;28;20021;-73
2021/05/09 03:19:24;;;;;;;2.38;1.23;;;13.30;81.60;;;;;;5030248;28;20048;-73
2021/05/09 03:21:50;;;;;;;2.72;1.17;;;13.20;81.00;;;;;;5029272;28;20483;-73
2021/05/09 03:24:15;;;;;;;2.17;1.23;;;13.20;81.10;;;;;;5028575;28;20099;-73
2021/05/09 03:26:41;;;;;;;5.97;1.67;;;13.20;81.00;;;;;;5029802;28;20299;-74
2021/05/09 03:29:07;;;;;;;2.47;1.15;;;13.20;81.50;;;;;;5031468;28;20100;-73
2021/05/09 03:31:33;;;;;;;2.55;1.33;;;13.10;81.10;;;;;;5030079;28;20041;-73
2021/05/09 03:33:59;;;;;;;2.60;1.42;;;13.20;81.10;;;;;;5030057;28;20041;-72
2021/05/09 03:36:24;;;;;;;3.42;1.48;;;13.10;81.50;;;;;;5029986;28;20515;-72
2021/05/09 03:38:50;;;;;;;1.70;1.42;;;13.10;82.20;;;;;;5029752;28;20146;-73
2021/05/09 03:41:16;;;;;;;5.18;1.50;;;13.00;82.10;;;;;;5031432;28;20036;-74
2021/05/09 03:43:42;;;;;;;3.90;1.60;;;13.00;82.60;;;;;;5029622;28;20037;-74
2021/05/09 03:46:08;;;;;;;3.13;1.08;;;13.00;82.50;;;;;;5029847;28;20030;-74
2021/05/09 03:48:34;;;;;;;3.05;1.27;;;12.90;82.60;;;;;;5029430;28;20034;-75
2021/05/09 03:51:00;;;;;;;2.25;1.30;;;12.90;83.30;;;;;;5029655;28;20407;-74
2021/05/09 03:53:27;;;;;;;3.20;1.33;;;12.90;83.60;;;;;;5028086;28;20087;-73
2021/05/09 03:55:53;;;;;;;3.20;1.30;;;12.90;83.40;;;;;;5031131;28;20075;-73
2021/05/09 03:58:18;;;;;;;1.50;1.27;;;12.90;83.50;;;;;;5028554;28;20045;-74
2021/05/09 04:00:44;;;;;;;4.72;1.85;;;12.90;84.00;;;;;;5029642;28;20433;-75
2021/05/09 04:03:27;;;;;;;1.77;1.20;;;12.80;83.50;;;;;;5029084;28;20026;-73
2021/05/09 04:05:53;;;;;;;2.22;1.15;;;12.80;83.80;;;;;;5029657;28;20081;-74
2021/05/09 04:08:22;;;;;;;5.18;1.60;;;12.80;83.60;;;;;;5028301;28;20120;-75
2021/05/09 04:10:50;;;;;;;3.47;1.48;;;12.80;83.70;;;;;;5030967;28;20387;-74
2021/05/09 04:13:16;;;;;;;3.28;1.30;;;12.80;83.80;;;;;;5029458;28;20046;-73
2021/05/09 04:15:42;;;;;;;4.40;1.55;;;12.90;83.90;;;;;;5029293;28;20110;-72
2021/05/09 04:18:08;;;;;;;2.60;1.17;;;12.90;83.30;;;;;;5029245;28;20463;-72
2021/05/09 04:20:34;;;;;;;3.90;1.63;;;12.90;83.50;;;;;;5029822;28;20029;-72
2021/05/09 04:23:19;;;;;;;3.80;1.23;;;13.00;83.60;;;;;;5030643;28;20324;-74
2021/05/09 04:25:52;;;;;;;2.83;1.48;;;13.00;83.60;;;;;;5029562;28;20044;-74
2021/05/09 04:28:20;;;;;;;4.22;1.30;;;13.00;83.60;;;;;;5028981;28;20796;-73
2021/05/09 04:30:47;;;;;;;4.05;1.10;;;13.00;83.50;;;;;;5028101;28;20045;-73
2021/05/09 04:33:13;;;;;;;3.28;1.40;;;13.00;83.20;;;;;;5029623;28;20029;-74
2021/05/09 04:35:43;;;;;;;2.08;1.40;;;13.10;83.50;;;;;;5030381;28;20128;-74
2021/05/09 04:38:10;;;;;;;4.13;1.35;;;13.10;83.60;;;;;;5014730;28;20014;-74
2021/05/09 04:40:36;;;;;;;7.00;1.45;;;13.10;83.20;;;;;;5031992;28;20041;-74
2021/05/09 04:43:06;;;;;;;1.63;1.20;;;13.10;83.40;;;;;;5032879;28;20040;-73
2021/05/09 04:45:32;;;;;;;2.15;1.45;;;13.10;83.20;;;;;;5021976;28;20089;-73
2021/05/09 04:47:57;;;;;;;3.60;1.48;;;13.10;83.30;;;;;;5018425;28;20086;-73
2021/05/09 04:50:23;;;;;;;3.22;1.40;;;13.20;83.40;;;;;;5032957;28;20029;-73
2021/05/09 04:52:49;;;;;;;2.78;1.40;;;13.20;83.40;;;;;;5034575;28;20316;-74
2021/05/09 04:55:14;;;;;;;1.90;1.35;;;13.20;83.50;;;;;;5032563;28;20038;-74
2021/05/09 04:57:40;;;;;;;4.18;1.58;;;13.20;83.40;;;;;;5031726;28;20126;-74
2021/05/09 05:00:06;;;;;;;2.13;1.33;;;13.30;83.70;;;;;;5031539;28;20045;-73
2021/05/09 05:02:32;;;;;;;2.45;1.08;;;13.30;83.40;;;;;;5033028;28;20029;-74
2021/05/09 05:04:57;;;;;;;2.00;1.00;;;13.30;83.60;;;;;;5034232;28;20075;-74
2021/05/09 05:07:23;;;;;;;4.07;1.48;;;13.40;83.80;;;;;;5032504;28;20046;-74
2021/05/09 05:09:49;;;;;;;4.20;1.55;;;13.40;83.70;;;;;;5032528;28;20099;-73
2021/05/09 05:12:18;;;;;;;4.65;1.60;;;13.50;83.60;;;;;;5032619;28;20037;-73
2021/05/09 05:14:44;;;;;;;1.83;1.27;;;13.50;83.60;;;;;;5032449;28;20106;-74
2021/05/09 05:17:09;;;;;;;2.45;1.50;;;13.60;84.20;;;;;;5033172;28;20053;-75
2021/05/09 05:19:35;;;;;;;5.72;1.60;;;13.60;83.50;;;;;;5032678;28;20052;-75
2021/05/09 05:22:01;;;;;;;6.85;1.23;;;13.70;83.50;;;;;;5032398;28;20469;-74
2021/05/09 05:24:27;;;;;;;2.13;1.05;;;13.70;84.00;;;;;;5032430;28;20033;-74
2021/05/09 05:26:52;;;;;;;5.20;1.50;;;13.80;83.50;;;;;;5032344;28;20313;-78
2021/05/09 05:29:18;;;;;;;3.65;1.38;;;13.90;83.30;;;;;;5032312;28;20048;-70
2021/05/09 05:31:45;;;;;;;3.13;1.10;;;14.00;83.10;;;;;;5032657;28;20030;-76
2021/05/09 05:34:11;;;;;;;5.85;1.48;;;14.00;83.30;;;;;;5032719;28;20048;-75
2021/05/09 05:36:38;;;;;;;1.38;1.15;;;14.10;83.10;;;;;;5032485;28;20041;-75
2021/05/09 05:39:08;;;;;;;3.67;1.27;;;14.20;83.30;;;;;;5032076;28;20276;-74
2021/05/09 05:41:33;;;;;;;1.70;1.02;;;14.20;83.10;;;;;;5032150;28;20028;-74
2021/05/09 05:43:59;;;;;;;3.92;1.38;;;14.30;83.00;;;;;;5033487;28;20021;-74
2021/05/09 05:46:29;;;;;;;2.33;1.10;;;14.40;83.20;;;;;;5030911;28;20050;-75
2021/05/09 05:48:55;;;;;;;3.33;1.27;;;14.50;83.00;;;;;;5031940;28;20064;-74
2021/05/09 05:51:20;;;;;;;4.15;1.20;;;14.60;82.80;;;;;;5031847;28;20067;-75
2021/05/09 05:53:46;;;;;;;3.00;0.90;;;14.60;82.50;;;;;;5031639;28;20092;-74
2021/05/09 05:56:12;;;;;;;6.22;1.38;;;14.70;82.50;;;;;;5033254;28;20021;-73
2021/05/09 05:58:38;;;;;;;3.70;1.20;;;14.80;82.50;;;;;;5031773;28;20030;-73
2021/05/09 06:01:03;;;;;;;2.55;1.30;;;14.90;82.50;;;;;;5031500;28;20259;-73
2021/05/09 06:03:29;;;;;;;1.17;1.00;;;15.00;82.30;;;;;;5030775;28;20041;-75
2021/05/09 06:05:57;;;;;;;3.00;1.20;;;15.10;81.90;;;;;;5031727;28;20116;-75
2021/05/09 06:08:23;;;;;;;4.30;1.63;;;15.20;81.60;;;;;;5031625;28;20049;-74
2021/05/09 06:10:49;;;;;;;2.33;1.65;;;15.30;81.50;;;;;;5033103;28;20010;-78
2021/05/09 06:13:15;;;;;;;3.25;1.60;;;15.40;81.30;;;;;;5030897;28;20471;-76
2021/05/09 06:15:41;;;;;;;2.65;1.98;;;15.50;81.10;;;;;;5031657;28;20025;-77
2021/05/09 06:18:07;;;;;;;2.22;1.67;;;15.50;80.80;;;;;;5031337;28;20034;-75
2021/05/09 06:20:33;;;;;;;3.75;1.73;;;15.70;80.90;;;;;;5031532;28;20029;-75
2021/05/09 06:23:04;;;;;;;4.05;1.00;;;15.80;80.80;;;;;;5032730;28;20017;-76
2021/05/09 06:25:30;;;;;;;3.15;1.17;;;16.00;79.90;;;;;;5029871;28;20045;-77
2021/05/09 06:27:56;;;;;;;2.10;1.35;;;16.20;79.80;;;;;;5031197;28;20068;-78
2021/05/09 06:30:22;;;;;;;0.95;0.88;;;16.60;79.50;;;;;;5031444;28;20111;-74
2021/05/09 06:32:48;;;;;;;1.50;0.93;;;17.10;78.30;;;;;;5030882;28;20029;-74
2021/05/09 06:35:14;;;;;;;3.38;1.33;;;17.70;77.60;;;;;;5032712;28;20018;-71
2021/05/09 06:37:40;;;;;;;1.85;1.20;;;18.40;77.00;;;;;;5030963;28;20399;-77
2021/05/09 06:40:06;;;;;;;3.30;1.13;;;19.20;74.80;;;;;;5032011;28;20050;-78
2021/05/09 06:42:32;;;;;;;1.00;0.90;;;19.80;72.60;;;;;;5032248;28;20031;-76
2021/05/09 06:45:06;;;;;;;4.30;1.00;;;20.40;70.10;;;;;;5031220;28;20367;-75
2021/05/09 06:47:32;;;;;;;4.43;0.95;;;20.90;68.60;;;;;;5029655;28;20065;-79
2021/05/09 06:49:57;;;;;;;1.08;0.98;;;21.10;66.70;;;;;;5032807;28;20057;-78
2021/05/09 06:52:23;;;;;;;2.45;1.10;;;21.40;65.90;;;;;;5030569;28;20034;-74
2021/05/09 06:54:50;;;;;;;2.53;1.27;;;21.50;64.40;;;;;;5030431;28;20052;-73
2021/05/09 06:57:16;;;;;;;3.78;1.00;;;21.70;63.20;;;;;;5029429;28;20538;-74
2021/05/09 06:59:44;;;;;;;1.75;1.55;;;22.00;63.00;;;;;;5030133;28;20167;-75
2021/05/09 07:02:10;;;;;;;5.30;1.40;;;22.40;61.70;;;;;;5032151;28;20025;-73
2021/05/09 07:04:36;;;;;;;2.33;1.25;;;22.70;60.30;;;;;;5029420;28;20072;-74
2021/05/09 07:07:01;;;;;;;2.72;0.80;;;23.00;59.00;;;;;;5030540;28;20122;-72
2021/05/09 07:09:27;;;;;;;1.88;1.25;;;23.40;58.80;;;;;;5030334;28;20037;-74
2021/05/09 07:11:53;;;;;;;4.47;1.23;;;23.60;58.00;;;;;;5029919;28;20055;-80
2021/05/09 07:14:18;;;;;;;3.47;1.17;;;23.60;56.80;;;;;;5030339;28;20021;-73
2021/05/09 07:16:44;;;;;;;1.52;1.30;;;23.80;55.80;;;;;;5031764;28;20416;-78
2021/05/09 07:19:10;;;;;;;2.22;1.00;;;24.00;55.50;;;;;;5029745;28;20029;-77
2021/05/09 07:21:42;;;;;;;1.98;1.10;;;24.20;54.80;;;;;;5030087;28;20041;-74
2021/05/09 07:24:08;;;;;;;6.57;1.30;;;24.60;54.90;;;;;;5029850;28;20526;-76
2021/05/09 07:26:34;;;;;;;3.75;1.08;;;25.00;54.00;;;;;;5028907;28;20064;-77
2021/05/09 07:28:59;;;;;;;2.08;1.25;;;25.60;53.00;;;;;;5030352;28;20068;-81
2021/05/09 07:31:26;;;;;;;2.38;0.90;;;26.10;52.20;;;;;;5028743;28;20080;-79
2021/05/09 07:33:51;;;;;;;1.20;0.85;;;26.40;50.90;;;;;;5029545;28;20092;-76
2021/05/09 07:36:17;;;;;;;3.55;1.00;;;26.80;49.30;;;;;;5029998;28;20041;-72
2021/05/09 07:38:43;;;;;;;0.75;0.75;;;27.00;48.40;;;;;;5029579;28;20037;-73
2021/05/09 07:41:09;;;;;;;2.53;1.00;;;27.50;47.50;;;;;;5031165;28;20677;-73
2021/05/09 07:43:34;;;;;;;1.80;1.00;;;27.90;46.90;;;;;;5028696;28;20030;-75
2021/05/09 07:46:00;;;;;;;3.08;1.38;;;28.10;45.80;;;;;;5022008;28;20046;-76
2021/05/09 07:48:26;;;;;;;1.77;1.13;;;28.30;44.90;;;;;;5029961;28;20186;-74
2021/05/09 07:50:51;;;;;;;6.22;3.92;;;29.10;44.30;;;;;;5029390;28;20339;-73
2021/05/09 07:53:18;;;;;;;2.13;1.10;;;29.30;43.00;;;;;;5031044;28;20104;-71
2021/05/09 07:55:44;;;;;;;1.55;1.17;;;29.50;42.70;;;;;;5028826;28;20581;-83
2021/05/09 07:58:17;;;;;;;1.38;1.08;;;29.90;42.00;;;;;;5029787;28;20040;-74
2021/05/09 08:00:43;;;;;;;1.38;0.95;;;30.30;41.40;;;;;;5016651;28;20045;-73
2021/05/09 08:03:10;;;;;;;1.50;1.15;;;30.80;40.50;;;;;;5009760;28;20029;-75
2021/05/09 08:05:35;;;;;;;1.63;1.13;;;31.00;38.80;;;;;;5009564;28;20080;-74
2021/05/09 08:08:01;;;;;;;2.95;1.15;;;31.20;39.30;;;;;;5010870;28;20038;-74
2021/05/09 08:10:31;;;;;;;3.20;0.90;;;31.30;39.10;;;;;;5009808;28;20053;-75
2021/05/09 08:12:56;;;;;;;2.10;0.95;;;31.70;38.90;;;;;;5009743;28;20125;-75
2021/05/09 08:15:22;;;;;;;2.80;1.00;;;31.70;38.00;;;;;;5018292;28;20112;-76
2021/05/09 08:17:48;;;;;;;1.25;0.88;;;32.00;36.90;;;;;;5029487;28;20037;-75
2021/05/09 08:20:15;;;;;;;1.73;0.98;;;32.30;37.30;;;;;;5030689;28;20402;-77
2021/05/09 08:22:41;;;;;;;2.70;1.10;;;32.60;36.70;;;;;;5029234;28;20107;-73
2021/05/09 08:25:07;;;;;;;1.70;1.15;;;33.20;36.00;;;;;;5029297;28;20048;-80
2021/05/09 08:27:36;;;;;;;1.73;0.90;;;33.70;35.40;;;;;;5029409;28;20030;-82
2021/05/09 08:30:04;;;;;;;4.53;1.33;;;33.80;35.00;;;;;;5028177;28;20045;-82
2021/05/09 08:32:30;;;;;;;2.42;1.20;;;33.60;33.90;;;;;;5028461;28;20084;-76
2021/05/09 08:34:58;;;;;;;1.90;0.90;;;33.10;34.90;;;;;;5031083;28;20017;-80
2021/05/09 08:37:23;;;;;;;2.70;1.38;;;34.00;34.00;;;;;;5028998;28;20124;-78
2021/05/09 08:39:49;;;;;;;1.67;1.05;;;34.40;33.60;;;;;;5028883;28;20141;-77
2021/05/09 08:42:18;;;;;;;2.33;1.10;;;34.50;33.40;;;;;;5029192;28;20095;-75
2021/05/09 08:44:46;;;;;;;1.05;1.00;;;34.20;32.80;;;;;;5028974;28;20376;-77
2021/05/09 08:47:14;;;;;;;2.25;1.10;;;34.60;32.90;;;;;;5030496;28;20018;-75
2021/05/09 08:49:41;;;;;;;1.13;0.95;;;34.80;32.90;;;;;;5028951;28;20045;-71
2021/05/09 08:52:10;;;;;;;1.50;0.95;;;34.90;33.00;;;;;;5028910;28;20037;-73
2021/05/09 08:54:36;;;;;;;3.97;0.80;;;34.40;32.90;;;;;;5028329;28;20624;-73
2021/05/09 08:57:06;;;;;;;4.88;1.00;;;35.20;31.80;;;;;;5028967;28;20033;-75
2021/05/09 08:59:31;;;;;;;2.92;0.93;;;35.60;31.00;;;;;;5028370;28;20095;-76
2021/05/09 09:01:57;;;;;;;2.17;1.00;;;35.80;31.70;;;;;;5030982;28;20025;-75
2021/05/09 09:04:24;;;;;;;2.00;1.02;;;35.80;30.90;;;;;;5029196;28;20037;-75
2021/05/09 09:06:53;;;;;;;2.13;1.30;;;35.50;31.10;;;;;;5029053;28;20049;-75
2021/05/09 09:09:25;;;;;;;3.92;2.90;;;35.20;31.30;;;;;;5027111;28;20029;-74
2021/05/09 09:11:54;;;;;;;2.13;1.27;;;35.20;31.20;;;;;;5028821;28;20073;-76
2021/05/09 09:14:26;;;;;;;3.00;1.08;;;35.00;31.60;;;;;;5028683;28;20030;-75
2021/05/09 09:17:14;;;;;;;2.53;0.80;;;35.30;30.80;;;;;;5030585;28;20017;-76
2021/05/09 09:20:01;;;;;;;0.90;0.82;;;35.20;30.90;;;;;;5028504;28;20025;-72
2021/05/09 09:22:47;;;;;;;6.45;1.08;;;35.90;30.80;;;;;;5032974;28;20033;-78
2021/05/09 09:25:13;;;;;;;1.30;1.02;;;35.40;30.10;;;;;;5032459;28;20037;-74
2021/05/09 09:27:43;;;;;;;2.20;0.88;;;35.70;30.50;;;;;;5032630;28;20036;-76
2021/05/09 09:30:10;;;;;;;4.65;1.15;;;35.50;30.40;;;;;;5030749;28;20120;-75
2021/05/09 09:32:35;;;;;;;1.90;1.05;;;35.20;30.70;;;;;;5031498;28;20087;-73
2021/05/09 09:35:01;;;;;;;1.45;0.80;;;35.30;30.80;;;;;;5033666;28;20025;-75
2021/05/09 09:37:34;;;;;;;4.20;1.00;;;34.30;31.30;;;;;;5032191;28;20048;-73
2021/05/09 09:40:03;;;;;;;2.47;1.40;;;33.80;31.80;;;;;;5031778;28;20481;-75
2021/05/09 09:42:45;;;;;;;1.50;0.90;;;33.50;32.50;;;;;;5032280;28;20140;-81
2021/05/09 09:45:20;;;;;;;3.88;1.23;;;33.10;33.10;;;;;;5032080;28;20026;-74
2021/05/09 09:47:49;;;;;;;2.83;0.75;;;32.90;33.70;;;;;;5030976;28;20175;-74
2021/05/09 09:50:33;;;;;;;3.45;1.10;;;33.10;32.80;;;;;;5033476;28;20021;-76
2021/05/09 09:52:59;;;;;;;12.05;1.27;;;33.10;33.00;;;;;;5064101;28;20044;-75
2021/05/09 09:55:24;;;;;;;5.18;1.00;;;33.20;33.20;;;;;;5031754;28;20041;-79
2021/05/09 09:58:04;;;;;;;1.67;0.90;;;33.00;33.00;;;;;;5031621;28;20480;-73
2021/05/09 10:00:29;;;;;;;1.38;1.00;;;32.80;33.20;;;;;;5031538;28;20041;-75
2021/05/09 10:02:56;;;;;;;2.03;0.98;;;32.60;34.20;;;;;;5031661;28;20584;-74
2021/05/09 10:05:22;;;;;;;7.20;1.10;;;31.80;33.80;;;;;;5031681;28;20128;-80
2021/05/09 10:07:49;;;;;;;2.47;1.05;;;31.50;34.70;;;;;;5033279;28;20024;-83
2021/05/09 10:10:16;;;;;;;5.13;1.15;;;31.10;35.50;;;;;;5030638;28;20033;-77
2021/05/09 10:12:43;;;;;;;8.13;1.10;;;30.90;36.00;;;;;;5031817;28;20742;-75
2021/05/09 10:15:09;;;;;;;3.20;0.77;;;30.60;36.70;;;;;;5031319;28;20112;-74
2021/05/09 10:17:36;;;;;;;5.63;1.20;;;30.50;36.70;;;;;;5031734;28;20522;-75
2021/05/09 10:20:04;;;;;;;2.50;1.40;;;30.10;37.10;;;;;;5033089;28;20053;-79
2021/05/09 10:22:34;;;;;;;2.35;1.10;;;29.90;37.20;;;;;;5030934;28;20117;-80
2021/05/09 10:25:01;;;;;;;2.38;1.08;;;29.70;37.90;;;;;;5031397;28;20037;-79
2021/05/09 10:27:38;;;;;;;1.38;1.15;;;29.30;38.40;;;;;;5031634;28;20077;-83
2021/05/09 10:30:06;;;;;;;0.82;0.65;;;29.20;38.60;;;;;;5031144;28;20045;-81
2021/05/09 10:32:34;;;;;;;4.20;1.23;;;28.90;38.70;;;;;;5031593;28;20068;-87
2021/05/09 10:35:02;;;;;;;3.95;1.00;;;28.80;38.90;;;;;;5032888;28;20021;-84
2021/05/09 10:37:37;;;;;;;2.15;1.02;;;28.60;38.90;;;;;;5031938;28;20095;-84
2021/05/09 10:40:21;;;;;;;3.45;1.10;;;28.50;39.60;;;;;;5032091;28;20067;-83
2021/05/09 10:42:48;;;;;;;3.33;0.90;;;28.30;39.90;;;;;;5031470;28;20045;-81
2021/05/09 10:45:30;;;;;;;3.60;0.98;;;28.30;39.80;;;;;;5031069;28;20108;-79
2021/05/09 10:48:30;;;;;;;2.67;1.25;;;28.30;40.00;;;;;;5030879;28;20387;-79
2021/05/09 10:51:02;;;;;;;1.67;0.90;;;28.20;40.10;;;;;;5031009;28;20034;-76
2021/05/09 10:53:48;;;;;;;1.27;0.90;;;28.20;39.80;;;;;;5030827;28;20089;-80
2021/05/09 10:56:14;;;;;;;1.80;0.90;;;28.20;39.80;;;;;;5032374;28;20030;-86
2021/05/09 10:58:46;;;;;;;4.28;1.25;;;28.10;40.40;;;;;;5030831;28;20044;-79
2021/05/09 11:01:25;;;;;;;3.03;0.95;;;28.00;40.90;;;;;;5030759;28;20056;-75
2021/05/09 11:04:07;;;;;;;9.73;1.33;;;28.00;41.30;;;;;;5030754;28;20359;-78
2021/05/09 11:06:40;;;;;;;5.53;1.00;;;27.90;41.40;;;;;;5030904;28;20073;-79
2021/05/09 11:09:11;;;;;;;3.03;1.20;;;27.80;41.10;;;;;;5029884;28;20044;-77
2021/05/09 11:11:37;;;;;;;3.55;0.98;;;27.70;41.30;;;;;;5030769;28;20029;-77
2021/05/09 11:14:08;;;;;;;2.97;1.25;;;27.70;41.70;;;;;;5032020;28;20394;-79
2021/05/09 11:16:40;;;;;;;5.82;1.10;;;27.60;41.80;;;;;;5030465;28;20042;-73
2021/05/09 11:19:07;;;;;;;4.28;0.98;;;27.60;42.90;;;;;;5030509;28;20116;-73
2021/05/09 11:21:40;;;;;;;6.72;1.33;;;27.50;43.50;;;;;;5026748;28;20064;-76
2021/05/09 11:24:11;;;;;;;3.67;0.88;;;27.40;44.30;;;;;;5031606;28;20057;-81
2021/05/09 11:26:42;;;;;;;1.42;1.00;;;27.20;44.30;;;;;;5030660;28;20424;-73
2021/05/09 11:29:09;;;;;;;4.50;1.02;;;27.00;44.40;;;;;;5030162;28;20111;-71
2021/05/09 11:31:41;;;;;;;8.35;1.38;;;26.90;45.10;;;;;;5028764;28;20038;-72
2021/05/09 11:34:07;;;;;;;2.88;1.20;;;27.00;45.60;;;;;;5029917;28;20033;-71
2021/05/09 11:36:35;;;;;;;3.65;1.30;;;26.90;45.80;;;;;;5029859;28;20061;-70
2021/05/09 11:39:12;;;;;;;2.20;0.80;;;26.70;45.60;;;;;;5029908;28;20137;-71
2021/05/09 11:41:51;;;;;;;2.83;1.00;;;26.70;45.80;;;;;;5029961;28;22514;-75
2021/05/09 11:44:18;;;;;;;3.55;1.40;;;26.60;45.80;;;;;;5030598;28;20547;-66
2021/05/09 11:46:43;;;;;;;5.55;1.20;;;26.70;46.30;;;;;;5029430;28;20033;-69
2021/05/09 11:49:20;;;;;;;7.90;1.30;;;26.60;46.80;;;;;;5029219;28;20036;-76
2021/05/09 11:51:50;;;;;;;3.70;1.20;;;26.60;46.70;;;;;;5029088;28;20211;-76
2021/05/09 11:54:16;;;;;;;3.38;1.20;;;26.70;46.70;;;;;;5030056;28;20483;-70
2021/05/09 11:56:56;;;;;;;1.35;1.23;;;26.60;46.60;;;;;;5029743;28;20048;-70
2021/05/09 11:59:32;;;;;;;2.33;1.10;;;26.50;46.70;;;;;;5029347;28;20029;-71
2021/05/09 12:01:58;;;;;;;4.05;1.40;;;26.60;47.40;;;;;;5031232;28;20022;-70
2021/05/09 12:04:29;;;;;;;4.25;1.08;;;26.60;46.90;;;;;;5029509;28;20072;-70
2021/05/09 12:07:00;;;;;;;1.67;1.00;;;26.60;46.70;;;;;;5028629;28;20087;-72
2021/05/09 12:09:27;;;;;;;7.03;1.30;;;26.60;46.60;;;;;;5029471;28;20038;-71
2021/05/09 12:11:53;;;;;;;2.75;1.17;;;26.60;46.70;;;;;;5029346;28;20099;-70
2021/05/09 12:14:20;;;;;;;5.82;1.40;;;26.60;46.70;;;;;;5029443;28;20386;-70
2021/05/09 12:16:47;;;;;;;4.28;1.45;;;26.60;46.70;;;;;;5030679;28;20084;-76
2021/05/09 12:19:13;;;;;;;5.22;1.80;;;26.60;46.60;;;;;;5029219;28;20045;-71
2021/05/09 12:21:52;;;;;;;1.52;1.15;;;26.70;46.80;;;;;;5029435;28;20030;-72
2021/05/09 12:24:18;;;;;;;2.67;1.70;;;26.60;46.70;;;;;;5028620;28;20123;-71
2021/05/09 12:27:03;;;;;;;2.78;1.30;;;26.60;46.80;;;;;;5029111;28;20108;-72
2021/05/09 12:29:29;;;;;;;1.85;1.30;;;26.60;47.10;;;;;;5028879;28;20056;-71
2021/05/09 12:32:34;;;;;;;4.85;1.30;;;26.60;47.10;;;;;;5030514;28;20348;-73
2021/05/09 12:35:12;;;;;;;3.38;1.05;;;26.70;47.20;;;;;;5029008;28;20057;-69
2021/05/09 12:37:46;;;;;;;4.20;1.20;;;26.70;47.00;;;;;;5029031;28;20089;-70
2021/05/09 12:40:17;;;;;;;3.28;1.20;;;26.70;47.10;;;;;;5028656;28;20111;-70
2021/05/09 12:43:10;;;;;;;4.30;1.02;;;26.80;47.20;;;;;;5027816;28;20045;-70
2021/05/09 12:45:35;;;;;;;1.40;1.08;;;26.70;47.20;;;;;;5029068;28;20033;-72
2021/05/09 12:48:22;;;;;;;2.53;1.38;;;26.80;47.50;;;;;;5028803;28;20230;-70
2021/05/09 12:50:53;;;;;;;2.10;1.10;;;26.80;47.70;;;;;;5028041;28;20359;-71
2021/05/09 12:53:42;;;;;;;2.38;1.20;;;26.80;47.60;;;;;;5028730;28;20285;-70